ENBO Airport Information

Runway Information
Runway 07 Length 11136 ft width 148 ft Elevation 17 ft Threshold 1969 ft Heading 78
Runway 25 Length 11136 ft Width 148 ft Elevation 39 ft Threshold N/A Heading 258
Airport Frequencies
Type A/D Name APP/DEP Frequency 119.7 MHZ
Type ATIS Name ATIS Frequency 123.9 MHZ
Type TWR Name TWR Frequency 118.1 MHZ
Airport Navaids
Type VOR-DME Name Bodo Frequency 117200 KHZ
Type TACAN Name Bodo Frequency 110800 KHZ
Type NDB Name Fleinvaer Frequency 374 KHZ
Type NDB Name Fauske Frequency 326 KHZ
Type NDB Name Stott Frequency 317 KHZ
Airport Weather Information & NOTAM
ADDS - METARS form results

(1655 UTC 01 December 2022)
Data provider http://aviationweather.gov/metar/data/
 
METAR text: ENBO 011650Z 10013KT CAVOK M00/M03 Q1036 NOSIG
Conditions at: ENBO (BODO VI (CIV/MIL, NO) observed 1650 UTC 01 December 2022
Temperature: 0.0°C (32°F)
Dewpoint: -3.0°C (27°F) [RH = 80%]
Pressure (altimeter): 30.59 inches Hg (1036.0 mb)
Winds: from the E (100 degrees) at 15 MPH (13 knots; 6.7 m/s)
Visibility: 6 or more miles (10+ km)
Ceiling: ceiling and visibility are OK
Clouds: unknown
Weather: no significant weather observed at this time

METAR text: ENBO 011620Z 09010KT CAVOK M01/M04 Q1036 NOSIG
Conditions at: ENBO (BODO VI (CIV/MIL, NO) observed 1620 UTC 01 December 2022
Temperature: -1.0°C (30°F)
Dewpoint: -4.0°C (25°F) [RH = 80%]
Pressure (altimeter): 30.59 inches Hg (1036.0 mb)
Winds: from the E (90 degrees) at 12 MPH (10 knots; 5.1 m/s)
Visibility: 6 or more miles (10+ km)
Ceiling: ceiling and visibility are OK
Clouds: unknown
Weather: no significant weather observed at this time

Forecast for: ENBO (BODO VI (CIV/MIL, NO)
Text: TAF ENBO 0112/0212 09012KT 9999 FEW050
Forecast period: 1200 UTC 01 December 2022 to 1200 UTC 02 December 2022
Forecast type: FROM: standard forecast or significant change
Winds: from the E (90 degrees) at 14 MPH (12 knots; 6.2 m/s)
Visibility: 6 or more miles (10+ km)
Ceiling: at least 12,000 feet AGL
Clouds: few clouds at 5000 feet AGL
Weather: no significant weather forecast for this period